Time;durP1;ratioP1;P1;durP2;ratioP2;P2;SDS_P1;SDS_P2;PMS_P1;PMS_P2;Temp;Humidity;BMP_temperature;BMP_pressure;BME280_temperature;BME280_humidity;BME280_pressure;Samples;Min_cycle;Max_cycle;Signal;HPM_P1;HPM_P2
2022/12/23 00:01:03;;;;;;;108.38;39.72;;;;;;;-1.91;100.00;100494.69;4998943;28;20061;-77
2022/12/23 00:03:29;;;;;;;91.78;38.60;;;;;;;-1.63;100.00;100552.69;5003637;28;20038;-77
2022/12/23 00:05:55;;;;;;;98.68;41.58;;;;;;;-1.26;100.00;100624.94;4998962;28;20573;-76
2022/12/23 00:08:21;;;;;;;112.47;45.28;;;;;;;-1.34;100.00;100627.09;4999553;28;20148;-76
2022/12/23 00:10:48;;;;;;;95.13;38.72;;;;;;;-1.29;100.00;100640.19;5002052;28;20061;-76
2022/12/23 00:16:10;;;;;;;92.93;41.35;;;;;;;-1.50;100.00;100607.44;4996774;28;20101;-77
2022/12/23 00:18:36;;;;;;;113.60;41.15;;;;;;;-1.58;100.00;100574.38;4986384;28;20481;-78
2022/12/23 00:21:14;;;;;;;92.75;39.22;;;;;;;-1.28;100.00;100629.09;4972101;28;20168;-76
2022/12/23 00:23:43;;;;;;;92.45;39.08;;;;;;;-1.31;100.00;100616.09;4988378;28;20077;-75
2022/12/23 00:26:25;;;;;;;107.47;41.05;;;;;;;-1.27;100.00;100633.44;4995751;28;20113;-75
2022/12/23 00:28:51;;;;;;;87.72;40.13;;;;;;;-1.36;100.00;100625.25;4998938;28;20204;-76
2022/12/23 00:31:17;;;;;;;100.65;38.45;;;;;;;-2.00;100.00;100500.22;4999156;28;20822;-76
2022/12/23 00:33:45;;;;;;;119.55;43.40;;;;;;;-1.22;100.00;100639.69;5001131;28;20124;-77
2022/12/23 00:36:11;;;;;;;112.03;44.13;;;;;;;-1.21;100.00;100659.50;4999508;28;20125;-75
2022/12/23 00:44:04;;;;;;;82.28;34.92;;;;;;;-1.19;100.00;100628.69;4999559;28;20045;-76
2022/12/23 00:46:31;;;;;;;100.90;43.55;;;;;;;-1.53;100.00;100589.22;4999715;28;20042;-76
2022/12/23 00:51:41;;;;;;;81.30;33.58;;;;;;;-1.72;100.00;100566.81;4999235;28;20049;-76
2022/12/23 00:54:06;;;;;;;105.00;41.50;;;;;;;-1.32;100.00;100611.72;5003463;28;20034;-76
2022/12/23 00:56:32;;;;;;;84.63;37.85;;;;;;;-1.22;100.00;100600.19;4995874;28;20513;-76
2022/12/23 00:58:58;;;;;;;92.15;32.88;;;;;;;-2.02;100.00;100468.41;4999187;28;20053;-77
2022/12/23 01:06:56;;;;;;;80.22;32.33;;;;;;;-1.25;100.00;100610.34;5000749;28;20097;-78
2022/12/23 01:09:22;;;;;;;85.88;36.72;;;;;;;-1.30;100.00;100603.28;4970717;28;20034;-75
2022/12/23 01:11:47;;;;;;;99.07;39.65;;;;;;;-2.15;100.00;100440.34;4976859;28;20046;-76
2022/12/23 01:14:12;;;;;;;88.95;33.67;;;;;;;-1.81;100.00;100527.78;4988392;28;20046;-75
2022/12/23 01:16:39;;;;;;;82.30;33.30;;;;;;;-2.07;100.00;100449.31;4996111;28;20493;-76
2022/12/23 01:19:05;;;;;;;85.10;37.10;;;;;;;-1.15;100.00;100589.41;4996834;28;20146;-76
2022/12/23 01:21:30;;;;;;;81.63;35.42;;;;;;;-1.36;100.00;100559.22;5000675;28;20046;-76
2022/12/23 01:23:56;;;;;;;62.78;28.27;;;;;;;-2.10;100.00;100449.16;5001537;28;20030;-76
2022/12/23 01:26:22;;;;;;;67.75;30.33;;;;;;;-1.46;100.00;100545.81;5002767;28;20052;-78
2022/12/23 01:28:47;;;;;;;59.20;31.48;;;;;;;-1.91;100.00;100475.00;5000320;28;20054;-77
2022/12/23 01:31:13;;;;;;;77.60;30.77;;;;;;;-1.50;100.00;100561.09;5000155;28;20056;-76
2022/12/23 01:33:38;;;;;;;76.05;30.52;;;;;;;-2.10;100.00;100461.13;4997138;28;20084;-75
2022/12/23 01:36:07;;;;;;;78.45;31.60;;;;;;;-1.70;100.00;100544.66;5000890;28;20498;-76
2022/12/23 01:38:33;;;;;;;61.78;27.65;;;;;;;-2.06;100.00;100473.31;5002146;28;20034;-75
2022/12/23 01:40:59;;;;;;;76.55;32.05;;;;;;;-1.98;100.00;100484.91;4997721;28;20120;-77
2022/12/23 01:43:44;;;;;;;73.63;33.63;;;;;;;-1.96;100.00;100466.16;5000416;28;20104;-78
2022/12/23 01:46:09;;;;;;;69.25;33.20;;;;;;;-1.47;100.00;100557.81;5001094;28;20068;-75
2022/12/23 01:48:35;;;;;;;83.22;32.95;;;;;;;-1.87;100.00;100472.56;5000400;28;20029;-76
2022/12/23 01:51:06;;;;;;;75.95;31.33;;;;;;;-2.16;100.00;100429.16;4998236;28;20060;-77
2022/12/23 01:53:35;;;;;;;70.20;29.63;;;;;;;-1.28;100.00;100595.66;5001192;28;20049;-75
2022/12/23 01:56:04;;;;;;;73.22;31.27;;;;;;;-1.23;100.00;100565.88;4995007;28;20069;-76
2022/12/23 01:58:34;;;;;;;83.43;33.92;;;;;;;-2.28;100.00;100405.41;4999271;28;20057;-75
2022/12/23 02:03:46;;;;;;;66.07;30.13;;;;;;;-1.27;100.00;100563.94;5003641;28;20602;-76
2022/12/23 02:09:17;;;;;;;70.07;27.35;;;;;;;-1.59;100.00;100490.28;4978900;28;20108;-76
2022/12/23 02:12:10;;;;;;;81.25;32.33;;;;;;;-1.19;100.00;100559.19;4981590;28;20050;-77
2022/12/23 02:17:33;;;;;;;74.50;32.13;;;;;;;-1.31;100.00;100534.59;5003807;28;20089;-76
2022/12/23 02:20:20;;;;;;;69.95;28.50;;;;;;;-1.39;100.00;100543.63;4989960;28;20088;-76
2022/12/23 02:22:51;;;;;;;66.60;29.58;;;;;;;-1.39;100.00;100550.47;4984626;28;20074;-79
2022/12/23 02:26:12;;;;;;;70.28;31.20;;;;;;;-1.35;100.00;100539.53;4985780;28;20050;-76
2022/12/23 02:28:58;;;;;;;82.60;30.48;;;;;;;-1.37;100.00;100536.84;4913223;29;20102;-76
2022/12/23 02:31:42;;;;;;;71.78;28.17;;;;;;;-1.23;100.00;100540.13;4997695;28;20058;-77
2022/12/23 02:34:17;;;;;;;74.03;30.73;;;;;;;-1.09;100.00;100543.38;4995889;28;20487;-76
2022/12/23 02:37:12;;;;;;;76.57;27.15;;;;;;;-1.15;100.00;100543.97;4984159;28;20141;-77
2022/12/23 02:39:59;;;;;;;92.50;32.00;;;;;;;-1.79;100.00;100469.59;4985300;28;20072;-76
2022/12/23 02:42:33;;;;;;;72.43;30.83;;;;;;;-1.25;100.00;100544.31;4997970;28;20401;-76
2022/12/23 02:45:14;;;;;;;70.95;26.60;;;;;;;-1.24;100.00;100553.81;4991513;28;20034;-77
2022/12/23 02:47:45;;;;;;;60.42;24.20;;;;;;;-1.45;100.00;100512.44;5002398;28;20134;-76
2022/12/23 02:50:18;;;;;;;69.10;29.35;;;;;;;-1.51;100.00;100512.13;5003263;28;20049;-76
2022/12/23 02:52:47;;;;;;;75.25;29.85;;;;;;;-1.27;100.00;100538.19;5000959;28;20108;-77
2022/12/23 02:55:18;;;;;;;79.90;31.98;;;;;;;-2.18;100.00;100396.47;5004433;28;20082;-75
2022/12/23 02:57:47;;;;;;;69.75;30.02;;;;;;;-1.34;100.00;100542.16;5000257;28;20042;-76
2022/12/23 03:00:14;;;;;;;67.75;32.17;;;;;;;-1.35;100.00;100540.41;4985806;28;20037;-75
2022/12/23 03:02:41;;;;;;;64.80;32.50;;;;;;;-2.03;100.00;100407.53;4995425;28;20150;-77
2022/12/23 03:05:28;;;;;;;59.15;25.75;;;;;;;-1.37;100.00;100549.72;5003623;28;20050;-77
2022/12/23 03:08:01;;;;;;;69.63;31.55;;;;;;;-1.42;100.00;100510.03;4999430;28;20054;-78
2022/12/23 03:11:02;;;;;;;53.53;29.10;;;;;;;-1.22;100.00;100536.72;5002263;28;20057;-75
2022/12/23 03:13:55;;;;;;;71.13;29.45;;;;;;;-1.28;100.00;100545.03;5004386;28;20093;-77
2022/12/23 03:16:25;;;;;;;55.70;21.95;;;;;;;-1.44;100.00;100554.50;5001884;28;20566;-75
2022/12/23 03:19:29;;;;;;;53.97;26.02;;;;;;;-1.24;100.00;100552.91;5000336;28;20077;-78
2022/12/23 03:22:09;;;;;;;61.55;29.27;;;;;;;-2.06;100.00;100442.47;4998787;28;20057;-78
2022/12/23 03:24:57;;;;;;;57.10;24.48;;;;;;;-1.31;100.00;100546.59;5001121;28;20034;-75
2022/12/23 03:27:34;;;;;;;63.53;27.30;;;;;;;-1.37;100.00;100541.13;5004729;28;20034;-76
2022/12/23 03:30:11;;;;;;;66.25;26.95;;;;;;;-1.70;100.00;100489.75;5003387;28;20042;-77
2022/12/23 03:32:48;;;;;;;77.45;31.45;;;;;;;-1.31;100.00;100550.03;5000709;28;20054;-77
2022/12/23 03:35:17;;;;;;;71.13;28.92;;;;;;;-2.17;100.00;100394.00;5005167;28;20053;-78
2022/12/23 03:37:47;;;;;;;61.50;25.15;;;;;;;-2.09;100.00;100388.34;5005551;28;20095;-77
2022/12/23 03:40:32;;;;;;;61.38;28.70;;;;;;;-1.25;100.00;100534.00;4999528;28;20050;-78
2022/12/23 03:43:11;;;;;;;71.20;31.45;;;;;;;-1.32;100.00;100539.66;4998881;28;20046;-77
2022/12/23 03:45:47;;;;;;;69.25;31.08;;;;;;;-1.48;100.00;100471.09;4998606;28;20061;-78
2022/12/23 03:48:38;;;;;;;67.85;28.38;;;;;;;-2.33;100.00;100324.63;5001862;28;20040;-78
2022/12/23 03:51:15;;;;;;;62.88;28.42;;;;;;;-2.08;100.00;100359.25;5001132;28;20050;-78
2022/12/23 03:53:50;;;;;;;51.38;25.95;;;;;;;-1.61;100.00;100458.47;5003178;28;20037;-77
2022/12/23 03:56:24;;;;;;;58.83;28.88;;;;;;;-1.37;100.00;100462.22;4999864;28;20221;-78
2022/12/23 03:58:57;;;;;;;76.93;28.98;;;;;;;-1.60;100.00;100434.50;4999165;28;20053;-77
2022/12/23 04:01:54;;;;;;;72.97;32.40;;;;;;;-1.21;100.00;100502.47;4997966;28;20429;-76
2022/12/23 04:04:43;;;;;;;71.18;27.90;;;;;;;-1.88;100.00;100404.84;5001392;28;20056;-78
2022/12/23 04:07:08;;;;;;;72.55;31.42;;;;;;;-1.45;100.00;100512.44;4998912;28;20072;-77
2022/12/23 04:09:35;;;;;;;75.97;30.00;;;;;;;-1.36;100.00;100505.19;5004194;28;20466;-77
2022/12/23 04:12:00;;;;;;;52.80;30.27;;;;;;;-1.60;100.00;100455.06;4998320;28;20516;-78
2022/12/23 04:14:26;;;;;;;64.50;31.92;;;;;;;-1.14;100.00;100508.81;5003302;28;20070;-75
2022/12/23 04:16:54;;;;;;;61.60;27.30;;;;;;;-1.70;100.00;100489.75;5000007;28;20182;-75
2022/12/23 04:19:20;;;;;;;59.70;27.70;;;;;;;-1.83;100.00;100510.50;5000787;28;20051;-76
2022/12/23 04:21:46;;;;;;;66.60;30.85;;;;;;;-1.77;100.00;100509.13;4999392;28;20067;-78
2022/12/23 04:24:11;;;;;;;52.85;22.27;;;;;;;-2.06;100.00;100397.09;5004540;28;20041;-76
2022/12/23 04:26:37;;;;;;;69.43;24.92;;;;;;;-1.34;100.00;100512.97;5003628;28;20052;-77
2022/12/23 04:29:02;;;;;;;62.92;28.63;;;;;;;-1.39;100.00;100494.72;4999019;28;20050;-76
2022/12/23 04:31:27;;;;;;;53.53;25.90;;;;;;;-1.48;100.00;100496.84;5000709;28;20038;-76
2022/12/23 04:33:53;;;;;;;56.38;31.63;;;;;;;-2.08;100.00;100397.81;4999585;28;20054;-76
2022/12/23 04:36:18;;;;;;;56.13;29.20;;;;;;;-2.13;100.00;100406.19;5001911;28;20470;-76
2022/12/23 04:38:44;;;;;;;58.95;26.02;;;;;;;-1.72;100.00;100511.94;5004181;28;20862;-76
2022/12/23 04:41:09;;;;;;;49.20;23.45;;;;;;;-2.29;100.00;100375.38;4998484;28;20481;-76
2022/12/23 04:43:35;;;;;;;52.10;27.52;;;;;;;-1.72;100.00;100463.06;4999196;28;20408;-76
2022/12/23 04:46:00;;;;;;;52.50;25.15;;;;;;;-1.76;100.00;100443.13;5001661;28;20108;-78
2022/12/23 04:48:25;;;;;;;65.70;29.10;;;;;;;-1.58;100.00;100480.06;4998795;28;20168;-78
2022/12/23 04:50:51;;;;;;;54.80;28.58;;;;;;;-1.40;100.00;100523.84;4999990;28;20061;-76
2022/12/23 04:53:16;;;;;;;52.97;28.83;;;;;;;-1.66;100.00;100442.81;5001849;28;20042;-76
2022/12/23 04:55:42;;;;;;;63.03;27.52;;;;;;;-1.99;100.00;100399.19;4997596;28;20132;-77
2022/12/23 04:58:07;;;;;;;58.38;29.02;;;;;;;-2.18;100.00;100411.88;4999788;28;20064;-76
2022/12/23 05:00:33;;;;;;;56.17;26.02;;;;;;;-1.61;100.00;100522.78;4997271;28;20037;-77
2022/12/23 05:02:58;;;;;;;69.65;30.73;;;;;;;-2.25;100.00;100392.69;5001843;28;20053;-77
2022/12/23 05:05:24;;;;;;;73.30;29.60;;;;;;;-2.12;100.00;100382.25;5002048;28;20069;-77
2022/12/23 05:07:50;;;;;;;67.05;31.40;;;;;;;-1.36;100.00;100492.31;4997231;28;20532;-77
2022/12/23 05:10:16;;;;;;;53.40;27.45;;;;;;;-2.04;100.00;100384.31;5000084;28;20065;-76
2022/12/23 05:12:41;;;;;;;62.45;25.92;;;;;;;-1.33;100.00;100519.91;4998813;28;20112;-76
2022/12/23 05:15:07;;;;;;;59.25;26.10;;;;;;;-1.40;100.00;100507.53;5000224;28;20034;-78
2022/12/23 05:17:33;;;;;;;58.97;27.95;;;;;;;-1.20;100.00;100534.22;4998710;28;20048;-77
2022/12/23 05:19:58;;;;;;;53.63;25.52;;;;;;;-2.06;100.00;100399.69;4999319;28;20046;-77
2022/12/23 05:22:24;;;;;;;65.80;27.45;;;;;;;-1.08;100.00;100525.44;4998753;28;20066;-76
2022/12/23 05:24:50;;;;;;;67.32;27.92;;;;;;;-1.34;100.00;100482.94;5000588;28;20050;-77
2022/12/23 05:27:15;;;;;;;59.28;27.23;;;;;;;-1.61;100.00;100423.31;4999380;28;20048;-77
2022/12/23 05:29:40;;;;;;;60.70;28.30;;;;;;;-1.01;100.00;100516.28;4998340;28;20043;-78
2022/12/23 05:32:07;;;;;;;71.03;28.83;;;;;;;-1.19;100.00;100495.72;4997034;28;20413;-77
2022/12/23 05:34:33;;;;;;;54.08;26.95;;;;;;;-0.99;100.00;100527.53;5004408;28;20045;-78
2022/12/23 05:36:58;;;;;;;54.55;27.90;;;;;;;-1.87;100.00;100374.84;4999038;28;20483;-78
2022/12/23 05:39:23;;;;;;;64.45;32.80;;;;;;;-1.82;100.00;100405.16;4998088;28;20038;-79
2022/12/23 05:41:49;;;;;;;59.90;30.42;;;;;;;-1.62;100.00;100448.97;4999306;28;20081;-76
2022/12/23 05:44:15;;;;;;;57.97;28.15;;;;;;;-1.87;100.00;100378.34;4996759;28;20053;-76
2022/12/23 05:46:40;;;;;;;56.70;29.27;;;;;;;-0.88;100.00;100535.81;4998290;28;20515;-77
2022/12/23 05:49:05;;;;;;;73.93;34.80;;;;;;;-1.04;100.00;100507.53;5002889;28;20046;-75
2022/12/23 05:51:31;;;;;;;68.05;31.13;;;;;;;-0.98;100.00;100508.72;5001054;28;20033;-77
2022/12/23 05:53:56;;;;;;;63.08;31.55;;;;;;;-1.57;100.00;100430.41;5001276;28;20038;-77
2022/12/23 05:56:22;;;;;;;61.90;29.70;;;;;;;-1.03;100.00;100529.91;4995490;28;20659;-77
2022/12/23 05:58:47;;;;;;;61.50;28.50;;;;;;;-1.53;100.00;100460.59;4996933;28;20065;-77
2022/12/23 06:01:13;;;;;;;70.90;34.22;;;;;;;-1.27;100.00;100505.59;5000797;28;20050;-77
2022/12/23 06:03:39;;;;;;;66.95;29.42;;;;;;;-1.12;100.00;100543.22;5000624;28;20053;-76
2022/12/23 06:06:05;;;;;;;59.55;29.75;;;;;;;-0.86;100.00;100545.38;4998903;28;20038;-75
2022/12/23 06:08:30;;;;;;;64.20;31.10;;;;;;;-1.06;100.00;100507.47;4999351;28;20100;-76
2022/12/23 06:10:58;;;;;;;61.78;27.70;;;;;;;-1.22;100.00;100474.94;4994063;28;20077;-75
2022/12/23 06:13:24;;;;;;;53.40;22.75;;;;;;;-0.95;100.00;100529.47;4996716;28;20147;-75
2022/12/23 06:15:49;;;;;;;58.72;29.30;;;;;;;-0.98;100.00;100560.22;4999755;28;20049;-76
2022/12/23 06:18:15;;;;;;;67.22;29.88;;;;;;;-1.03;100.00;100559.13;5000385;28;20037;-76
2022/12/23 06:20:44;;;;;;;54.65;26.70;;;;;;;-0.97;100.00;100556.84;4997826;28;20046;-75
2022/12/23 06:23:09;;;;;;;56.20;26.70;;;;;;;-0.91;100.00;100539.13;4979809;28;21457;-77
2022/12/23 06:25:35;;;;;;;62.08;29.60;;;;;;;-0.91;100.00;100533.97;4998289;28;20072;-76
2022/12/23 06:28:00;;;;;;;63.28;31.17;;;;;;;-1.83;100.00;100417.91;4997480;28;20054;-77
2022/12/23 06:30:26;;;;;;;64.80;33.65;;;;;;;-1.09;100.00;100504.75;5000795;28;20030;-76
2022/12/23 06:32:51;;;;;;;64.30;29.17;;;;;;;-1.41;100.00;100444.00;4998531;28;20081;-77
2022/12/23 06:35:17;;;;;;;60.53;27.60;;;;;;;-0.96;100.00;100504.53;4998843;28;20500;-76
2022/12/23 06:37:43;;;;;;;62.20;26.90;;;;;;;-0.86;100.00;100514.47;4998050;28;20096;-76
2022/12/23 06:40:09;;;;;;;66.40;29.48;;;;;;;-0.63;100.00;100553.31;4996611;28;20054;-76
2022/12/23 06:42:34;;;;;;;57.78;32.42;;;;;;;-1.86;100.00;100314.94;4996587;28;20124;-77
2022/12/23 06:45:00;;;;;;;81.57;33.55;;;;;;;-1.44;100.00;100370.09;5000706;28;20041;-77
2022/12/23 06:47:25;;;;;;;54.28;27.45;;;;;;;-1.17;100.00;100405.66;4997021;28;20112;-77
2022/12/23 06:49:51;;;;;;;78.28;29.20;;;;;;;-0.47;100.00;100523.97;4995892;28;20050;-76
2022/12/23 06:52:16;;;;;;;58.13;29.90;;;;;;;-0.23;100.00;100542.25;4997396;28;20045;-76
2022/12/23 06:54:42;;;;;;;58.65;29.52;;;;;;;-1.15;100.00;100393.75;5000256;28;20049;-78
2022/12/23 06:57:07;;;;;;;69.80;33.65;;;;;;;-0.16;100.00;100530.53;4977417;28;20054;-77
2022/12/23 06:59:33;;;;;;;67.72;32.13;;;;;;;-1.08;100.00;100360.66;4958261;28;20055;-77
2022/12/23 07:01:58;;;;;;;66.68;33.28;;;;;;;-0.72;100.00;100480.75;4956932;28;20050;-76
2022/12/23 07:04:23;;;;;;;62.95;34.78;;;;;;;-0.58;100.00;100495.13;4955803;28;20085;-76
2022/12/23 07:06:49;;;;;;;56.97;29.33;;;;;;;-0.18;100.00;100556.25;4960272;28;20522;-75
2022/12/23 07:09:14;;;;;;;61.53;34.17;;;;;;;-0.59;100.00;100448.69;4958766;28;20034;-75
2022/12/23 07:11:40;;;;;;;63.92;32.65;;;;;;;-0.88;100.00;100508.34;4977260;28;20062;-76
2022/12/23 07:14:05;;;;;;;69.00;29.83;;;;;;;-0.91;100.00;100471.28;4953866;28;20059;-76
2022/12/23 07:16:31;;;;;;;72.97;32.20;;;;;;;-1.02;100.00;100385.78;4947639;29;20476;-76
2022/12/23 07:18:56;;;;;;;65.88;32.08;;;;;;;-0.06;100.00;100532.69;4947680;28;20051;-76
2022/12/23 07:21:22;;;;;;;58.00;30.83;;;;;;;-0.46;100.00;100463.88;4946041;28;20091;-79
2022/12/23 07:23:47;;;;;;;58.55;31.63;;;;;;;-0.30;100.00;100471.50;4947733;29;20106;-78
2022/12/23 07:26:13;;;;;;;73.63;33.72;;;;;;;-0.70;100.00;100389.81;4959763;28;20046;-75
2022/12/23 07:28:38;;;;;;;63.90;32.70;;;;;;;0.29;100.00;100554.88;4946530;28;20458;-76
2022/12/23 07:31:05;;;;;;;63.42;30.70;;;;;;;-0.05;100.00;100498.34;4934682;28;20047;-77
2022/12/23 07:33:30;;;;;;;71.60;29.42;;;;;;;0.06;100.00;100522.03;4960757;28;20041;-78
2022/12/23 07:35:59;;;;;;;57.90;31.35;;;;;;;0.16;100.00;100556.06;4970084;28;20034;-77
2022/12/23 07:38:25;;;;;;;71.82;30.38;;;;;;;0.01;100.00;100505.50;4977959;28;20109;-76
2022/12/23 07:40:50;;;;;;;72.55;34.97;;;;;;;-0.02;100.00;100535.47;4971143;28;20046;-78
2022/12/23 07:43:15;;;;;;;55.58;30.27;;;;;;;-0.39;100.00;100447.88;4980001;28;20058;-79
2022/12/23 07:45:41;;;;;;;58.03;28.55;;;;;;;0.35;100.00;100549.09;4959679;28;20045;-78
2022/12/23 07:48:07;;;;;;;59.95;29.83;;;;;;;0.39;100.00;100508.00;4961592;28;20510;-77
2022/12/23 07:50:33;;;;;;;62.10;31.67;;;;;;;0.34;100.00;100517.25;4949751;28;20043;-78
2022/12/23 07:52:58;;;;;;;65.82;32.08;;;;;;;-0.18;100.00;100398.94;4949261;28;20059;-77
2022/12/23 07:55:24;;;;;;;64.32;33.55;;;;;;;0.43;100.00;100532.25;4954529;28;20047;-77
2022/12/23 07:57:51;;;;;;;77.10;34.58;;;;;;;-0.12;100.00;100418.94;4964462;28;20071;-78
2022/12/23 08:00:18;;;;;;;59.55;31.63;;;;;;;0.55;100.00;100555.13;4960686;28;20046;-78
2022/12/23 08:02:43;;;;;;;50.40;29.42;;;;;;;-0.31;100.00;100433.63;4969557;28;20050;-77
2022/12/23 08:05:09;;;;;;;76.47;37.75;;;;;;;0.00;100.00;100460.75;4967973;28;20410;-77
2022/12/23 08:07:35;;;;;;;69.05;35.65;;;;;;;-0.08;100.00;100426.88;4967436;28;20077;-78
2022/12/23 08:10:00;;;;;;;74.97;34.60;;;;;;;0.84;100.00;100579.56;4967591;28;20129;-75
2022/12/23 08:12:26;;;;;;;71.80;33.13;;;;;;;0.38;100.00;100479.56;4959141;28;20030;-76
2022/12/23 08:14:51;;;;;;;66.97;37.05;;;;;;;0.73;100.00;100552.44;4974171;28;20030;-76
2022/12/23 08:17:20;;;;;;;68.72;35.38;;;;;;;0.01;100.00;100417.78;4969684;28;20139;-77
2022/12/23 08:19:48;;;;;;;77.45;36.85;;;;;;;-0.36;100.00;100373.25;4969579;28;20067;-78
2022/12/23 08:22:14;;;;;;;63.45;35.50;;;;;;;0.01;100.00;100425.53;4968877;28;20054;-77
2022/12/23 08:24:39;;;;;;;71.55;34.17;;;;;;;0.14;100.00;100426.13;4969115;28;20058;-77
2022/12/23 08:27:05;;;;;;;70.65;34.45;;;;;;;0.93;100.00;100538.63;4969130;28;20473;-75
2022/12/23 08:29:31;;;;;;;71.57;36.00;;;;;;;0.32;100.00;100400.16;4969553;28;20853;-77
2022/12/23 08:31:57;;;;;;;66.38;33.78;;;;;;;1.15;100.00;100534.34;4967635;28;20054;-78
2022/12/23 08:34:22;;;;;;;66.68;33.72;;;;;;;1.07;100.00;100522.81;4967171;28;20529;-75
2022/12/23 08:36:48;;;;;;;63.83;33.90;;;;;;;1.08;100.00;100491.88;4968419;28;20574;-77
2022/12/23 08:39:13;;;;;;;71.03;35.38;;;;;;;1.30;100.00;100515.97;4973619;28;20125;-78
2022/12/23 08:41:46;;;;;;;71.60;39.10;;;;;;;0.87;100.00;100408.34;4961223;28;20054;-77
2022/12/23 08:44:12;;;;;;;67.85;35.28;;;;;;;1.49;100.00;100531.34;4966690;28;20056;-78
2022/12/23 08:46:38;;;;;;;66.60;35.60;;;;;;;1.36;100.00;100530.03;4968754;28;20049;-78
2022/12/23 08:49:04;;;;;;;73.10;36.78;;;;;;;0.81;100.00;100390.91;4968850;28;20067;-77
2022/12/23 08:51:30;;;;;;;72.32;37.10;;;;;;;1.48;100.00;100476.19;4968636;28;20129;-76
2022/12/23 08:53:58;;;;;;;69.32;37.55;;;;;;;1.18;100.00;100392.34;4951455;28;20034;-76
2022/12/23 08:56:26;;;;;;;71.05;36.55;;;;;;;1.73;100.00;100520.19;4962825;28;20065;-75
2022/12/23 08:58:53;;;;;;;72.63;35.88;;;;;;;1.72;100.00;100480.50;4968277;28;20062;-76
2022/12/23 09:01:23;;;;;;;82.53;35.67;;;;;;;1.46;100.00;100422.66;4987753;28;20107;-77
2022/12/23 09:03:50;;;;;;;70.47;37.40;;;;;;;1.98;100.00;100493.50;4983903;28;20062;-77
2022/12/23 09:06:19;;;;;;;75.93;38.78;;;;;;;1.25;100.00;100402.06;4985836;28;20127;-77
2022/12/23 09:08:46;;;;;;;71.93;39.33;;;;;;;2.01;100.00;100503.97;4985027;28;20074;-77
2022/12/23 09:11:18;;;;;;;70.97;37.95;;;;;;;1.94;100.00;100489.91;4977549;28;20046;-75
2022/12/23 09:13:45;;;;;;;64.57;36.22;;;;;;;2.10;100.00;100487.03;4994439;28;20501;-77
2022/12/23 09:16:11;;;;;;;57.80;33.47;;;;;;;1.96;100.00;100466.69;4979209;28;20105;-76
2022/12/23 09:18:37;;;;;;;68.18;36.28;;;;;;;1.88;100.00;100443.16;5000661;28;20057;-77
2022/12/23 09:21:12;;;;;;;72.88;36.35;;;;;;;2.16;100.00;100481.22;4996924;28;20405;-76
2022/12/23 09:23:39;;;;;;;76.13;35.47;;;;;;;2.20;100.00;100480.50;4999403;28;20049;-78
2022/12/23 09:26:05;;;;;;;77.65;39.90;;;;;;;2.11;100.00;100480.19;4997724;28;20196;-77
2022/12/23 09:28:31;;;;;;;68.63;37.65;;;;;;;2.15;100.00;100463.91;5001186;28;20046;-75
2022/12/23 09:30:56;;;;;;;69.22;36.10;;;;;;;2.21;100.00;100471.03;4996999;28;20525;-76
2022/12/23 09:33:22;;;;;;;87.68;36.03;;;;;;;2.36;100.00;100475.84;4985729;28;20040;-76
2022/12/23 09:35:48;;;;;;;79.70;38.67;;;;;;;1.89;100.00;100367.28;4997252;28;20138;-77
2022/12/23 09:38:13;;;;;;;75.10;37.75;;;;;;;2.55;100.00;100480.81;4996278;28;20062;-75
2022/12/23 09:40:40;;;;;;;72.22;35.75;;;;;;;1.90;100.00;100358.72;4994530;28;20149;-77
2022/12/23 09:43:44;;;;;;;75.78;35.47;;;;;;;2.60;100.00;100471.50;5015885;28;21190;-76
2022/12/23 09:46:20;;;;;;;76.00;39.17;;;;;;;2.70;100.00;100478.72;4956908;28;20136;-77
2022/12/23 09:48:55;;;;;;;70.47;37.80;;;;;;;2.79;100.00;100482.47;5001994;28;20454;-77
2022/12/23 09:51:22;;;;;;;72.10;37.20;;;;;;;2.02;100.00;100348.75;4997618;28;20745;-77
2022/12/23 09:54:07;;;;;;;66.28;40.20;;;;;;;2.64;100.00;100470.75;5003739;28;20537;-77
2022/12/23 09:56:58;;;;;;;60.80;36.70;;;;;;;2.49;100.00;100454.72;5005816;28;20047;-77
2022/12/23 09:59:45;;;;;;;64.90;40.28;;;;;;;2.85;100.00;100469.69;4946090;28;20047;-78
2022/12/23 10:02:37;;;;;;;72.47;40.95;;;;;;;2.66;100.00;100427.63;4961237;28;20054;-76
2022/12/23 10:05:22;;;;;;;77.13;37.92;;;;;;;2.07;100.00;100317.84;4960385;28;20055;-76
2022/12/23 10:07:54;;;;;;;86.28;38.00;;;;;;;3.02;100.00;100458.16;4952711;28;20047;-76
2022/12/23 10:10:25;;;;;;;102.05;43.53;;;;;;;3.10;100.00;100466.16;4951040;28;20046;-80
2022/12/23 10:12:52;;;;;;;76.63;39.67;;;;;;;2.84;100.00;100437.72;4959058;28;20055;-77
2022/12/23 10:15:29;;;;;;;82.18;43.40;;;;;;;2.89;100.00;100476.75;4964092;28;20114;-78
2022/12/23 10:18:02;;;;;;;73.43;37.30;;;;;;;2.34;100.00;100333.38;4963818;28;20094;-78
2022/12/23 10:20:38;;;;;;;82.22;40.40;;;;;;;3.26;100.00;100459.75;4961054;28;20083;-77
2022/12/23 10:23:12;;;;;;;86.07;43.95;;;;;;;3.17;100.00;100435.28;4964536;28;20174;-77
2022/12/23 10:25:49;;;;;;;74.05;37.55;;;;;;;3.02;100.00;100349.31;4966575;28;20047;-76
2022/12/23 10:28:14;;;;;;;75.18;42.30;;;;;;;3.46;100.00;100445.63;4953546;28;20051;-77
2022/12/23 10:30:42;;;;;;;77.63;41.47;;;;;;;3.37;100.00;100442.75;4946549;28;20394;-77
2022/12/23 10:33:23;;;;;;;87.03;46.85;;;;;;;2.58;100.00;100298.75;4961664;28;20121;-76
2022/12/23 10:36:03;;;;;;;76.75;40.53;;;;;;;2.87;100.00;100325.50;4966464;28;20138;-78
2022/12/23 10:38:47;;;;;;;77.47;43.75;;;;;;;3.78;100.00;100443.09;4963933;28;20051;-76
2022/12/23 10:41:19;;;;;;;;;;;;;;;3.64;100.00;100437.50;4958217;28;20055;-77
2022/12/23 10:44:22;;;;;;;64.43;38.90;;;;;;;3.91;100.00;100440.00;4966490;28;20084;-78
2022/12/23 10:46:56;;;;;;;82.05;38.60;;;;;;;3.57;100.00;100378.50;4964510;28;20046;-77
2022/12/23 10:50:00;;;;;;;68.18;37.00;;;;;;;4.02;100.00;100442.88;4953078;28;20081;-75
2022/12/23 10:52:32;;;;;;;;;;;;;;;4.08;100.00;100444.78;4965931;28;20109;-76
2022/12/23 10:54:58;;;;;;;78.30;38.92;;;;;;;4.00;100.00;100448.03;4966826;28;19945;-76
2022/12/23 10:57:24;;;;;;;67.63;39.35;;;;;;;3.68;100.00;100404.75;4969551;28;20502;-76
2022/12/23 10:59:50;;;;;;;84.47;39.95;;;;;;;3.57;100.00;100407.91;4979353;28;20113;-76
2022/12/23 11:02:31;;;;;;;88.90;43.25;;;;;;;4.01;100.00;100441.13;4977307;28;20038;-79
2022/12/23 11:04:57;;;;;;;66.30;36.92;;;;;;;3.56;100.00;100333.53;4981904;28;20135;-78
2022/12/23 11:07:26;;;;;;;63.72;36.70;;;;;;;3.62;100.00;100339.72;4978775;28;20055;-78
2022/12/23 11:10:02;;;;;;;82.57;44.67;;;;;;;4.06;100.00;100407.50;4973866;28;20112;-78
2022/12/23 11:12:40;;;;;;;63.90;36.55;;;;;;;3.58;100.00;100307.59;4963622;28;20042;-77
2022/12/23 11:15:23;;;;;;;74.40;42.15;;;;;;;3.88;100.00;100350.78;4966359;28;20038;-78
2022/12/23 11:18:17;;;;;;;70.68;38.13;;;;;;;3.84;100.00;100355.03;4979044;28;20380;-78
2022/12/23 11:20:45;;;;;;;107.30;40.60;;;;;;;3.72;100.00;100316.66;4986931;28;20058;-78
2022/12/23 11:23:22;;;;;;;70.95;39.65;;;;;;;4.27;100.00;100433.16;4989014;28;20531;-75
2022/12/23 11:25:48;;;;;;;72.57;39.80;;;;;;;4.34;100.00;100409.97;4988131;28;20050;-79
2022/12/23 11:28:20;;;;;;;73.60;43.72;;;;;;;4.58;100.00;100411.41;4979364;28;20061;-77
2022/12/23 11:30:56;;;;;;;76.90;39.10;;;;;;;3.92;100.00;100269.56;4978068;28;20137;-77
2022/12/23 11:33:31;;;;;;;75.30;41.63;;;;;;;4.56;100.00;100402.69;4987799;28;20034;-77
2022/12/23 11:36:06;;;;;;;68.40;39.25;;;;;;;4.68;100.00;100402.09;4989988;28;20164;-77
2022/12/23 11:38:33;;;;;;;74.10;41.00;;;;;;;4.51;100.00;100378.31;4986887;28;20061;-78
2022/12/23 11:40:59;;;;;;;88.47;42.25;;;;;;;4.69;100.00;100391.75;4987586;28;20061;-77
2022/12/23 11:43:26;;;;;;;68.60;38.15;;;;;;;3.98;100.00;100257.63;4983257;28;20169;-77